Time;durP1;ratioP1;P1;durP2;ratioP2;P2;SDS_P1;SDS_P2;PMS_P1;PMS_P2;Temp;Humidity;BMP_temperature;BMP_pressure;BME280_temperature;BME280_humidity;BME280_pressure;Samples;Min_cycle;Max_cycle;Signal;HPM_P1;HPM_P2
2023/10/11 00:01:01;;;;;;;0.35;0.35;;;;;;;12.26;100.00;96299.47;1014943;29;20017;-75
2023/10/11 00:01:32;;;;;;;0.30;0.30;;;;;;;12.23;100.00;96298.13;1018991;29;20032;-76
2023/10/11 00:02:05;;;;;;;1.85;1.40;;;;;;;12.24;100.00;96298.94;1014933;29;20031;-75
2023/10/11 00:02:37;;;;;;;2.65;0.85;;;;;;;12.23;100.00;96302.59;1018244;29;20028;-76
2023/10/11 00:03:54;;;;;;;0.28;0.28;;;;;;;12.19;100.00;96301.53;1028269;28;20018;-76
2023/10/11 00:04:24;;;;;;;1.05;0.88;;;;;;;12.16;100.00;96304.69;1030731;28;20065;-76
2023/10/11 00:04:55;;;;;;;1.67;1.58;;;;;;;12.13;100.00;96306.00;1028538;28;20430;-75
2023/10/11 00:05:28;;;;;;;0.20;0.20;;;;;;;12.05;100.00;96297.81;1022774;29;20027;-77
2023/10/11 00:06:04;;;;;;;0.30;0.20;;;;;;;12.07;100.00;96290.44;1021175;29;20068;-76
2023/10/11 00:06:35;;;;;;;3.25;0.85;;;;;;;12.10;100.00;96300.44;1022753;29;20476;-76
2023/10/11 00:07:05;;;;;;;3.40;1.52;;;;;;;12.16;100.00;96309.94;1024020;28;20023;-76
2023/10/11 00:07:36;;;;;;;1.73;1.13;;;;;;;12.13;100.00;96308.63;1018807;29;20039;-78
2023/10/11 00:08:16;;;;;;;0.55;0.55;;;;;;;12.10;100.00;96303.06;1018724;29;20020;-77
2023/10/11 00:08:46;;;;;;;2.17;1.02;;;;;;;12.15;100.00;96311.00;1023419;28;20388;-77
2023/10/11 00:09:17;;;;;;;2.38;2.17;;;;;;;12.13;100.00;96310.47;1023216;28;20031;-76
2023/10/11 00:09:51;;;;;;;2.00;1.83;;;;;;;12.13;100.00;96313.09;1026907;28;20475;-77
2023/10/11 00:10:22;;;;;;;0.50;0.50;;;;;;;12.11;100.00;96309.94;1023949;28;20075;-76
2023/10/11 00:10:54;;;;;;;2.25;1.30;;;;;;;12.12;100.00;96316.78;1019580;29;20531;-76
2023/10/11 00:11:27;;;;;;;0.32;0.32;;;;;;;12.12;100.00;96311.53;1018681;29;20530;-75
2023/10/11 00:11:57;;;;;;;1.40;1.30;;;;;;;12.12;100.00;96320.19;1019339;29;20031;-76
2023/10/11 00:12:29;;;;;;;1.50;0.98;;;;;;;12.09;100.00;96310.19;1017971;29;20424;-76
2023/10/11 00:12:59;;;;;;;2.60;2.22;;;;;;;11.97;100.00;96302.53;1015467;29;20088;-75
2023/10/11 00:13:35;;;;;;;2.10;0.90;;;;;;;12.00;100.00;96307.28;1018620;29;20524;-76
2023/10/11 00:14:06;;;;;;;1.65;0.52;;;;;;;12.05;100.00;96316.22;1014732;29;20055;-76
2023/10/11 00:14:39;;;;;;;1.30;0.65;;;;;;;11.99;100.00;96310.16;1015624;29;20263;-75
2023/10/11 00:15:10;;;;;;;3.60;1.80;;;;;;;12.01;100.00;96319.38;1012067;29;20116;-76
2023/10/11 00:15:48;;;;;;;6.97;0.63;;;;;;;11.97;100.00;96310.41;1023286;28;20015;-76
2023/10/11 00:16:21;;;;;;;5.97;1.45;;;;;;;11.94;100.00;96313.56;1014839;29;20032;-75
2023/10/11 00:16:53;;;;;;;0.90;0.47;;;;;;;11.95;100.00;96315.13;1022616;29;20039;-76
2023/10/11 00:17:23;;;;;;;1.48;1.38;;;;;;;11.97;100.00;96317.50;1010909;29;20025;-78
2023/10/11 00:17:53;;;;;;;5.78;0.90;;;;;;;11.94;100.00;96313.56;1008116;29;20379;-77
2023/10/11 00:18:27;;;;;;;1.95;1.25;;;;;;;11.93;100.00;96311.97;1011244;29;20029;-76
2023/10/11 00:18:57;;;;;;;2.17;1.98;;;;;;;11.81;100.00;96292.97;1007682;29;20498;-76
2023/10/11 00:19:29;;;;;;;0.77;0.77;;;;;;;11.94;100.00;96313.56;1022605;29;20267;-76
2023/10/11 00:20:03;;;;;;;0.10;0.10;;;;;;;11.91;100.00;96308.81;1026680;28;20025;-78
2023/10/11 00:21:11;;;;;;;1.35;1.02;;;;;;;11.94;100.00;96318.81;1025264;28;20564;-75
2023/10/11 00:21:42;;;;;;;1.02;0.82;;;;;;;11.93;100.00;96314.59;1023947;28;20262;-76
2023/10/11 00:22:12;;;;;;;1.02;0.77;;;;;;;11.92;100.00;96315.63;1019748;29;20044;-75
2023/10/11 00:22:43;;;;;;;2.80;1.05;;;;;;;11.90;100.00;96312.47;1018312;29;20115;-76
2023/10/11 00:23:22;;;;;;;0.85;0.85;;;;;;;11.88;100.00;96313.78;1018449;29;20544;-78
2023/10/11 00:23:52;;;;;;;1.55;1.45;;;;;;;11.90;100.00;96315.09;1010858;29;20013;-77
2023/10/11 00:24:23;;;;;;;1.00;0.88;;;;;;;11.85;100.00;96304.56;1017137;29;20483;-77
2023/10/11 00:24:55;;;;;;;0.95;0.70;;;;;;;11.88;100.00;96319.84;1018581;29;20024;-76
2023/10/11 00:25:29;;;;;;;3.28;1.48;;;;;;;11.80;100.00;96310.56;1019019;29;20382;-77
2023/10/11 00:26:00;;;;;;;0.60;0.60;;;;;;;11.81;100.00;96306.09;1025966;28;20363;-77
2023/10/11 00:26:30;;;;;;;5.90;1.27;;;;;;;11.86;100.00;96315.88;1021842;29;20023;-76
2023/10/11 00:27:02;;;;;;;2.63;1.73;;;;;;;11.84;100.00;96310.03;1018747;29;20295;-76
2023/10/11 00:27:33;;;;;;;0.73;0.73;;;;;;;11.84;100.00;96318.78;1030468;28;20438;-76
2023/10/11 00:28:04;;;;;;;2.58;1.73;;;;;;;11.80;100.00;96307.13;1022737;29;20019;-76
2023/10/11 00:28:37;;;;;;;1.48;0.98;;;;;;;11.84;100.00;96317.94;1022783;29;20050;-77
2023/10/11 00:29:09;;;;;;;2.85;2.15;;;;;;;11.86;100.00;96315.88;1025941;28;20032;-76
2023/10/11 00:29:40;;;;;;;0.30;0.30;;;;;;;11.88;100.00;96314.56;1022651;29;20366;-75
2023/10/11 00:30:11;;;;;;;0.55;0.55;;;;;;;11.91;100.00;96310.66;1027533;28;20030;-76
2023/10/11 00:30:46;;;;;;;1.42;0.73;;;;;;;11.88;100.00;96314.56;1026319;28;20024;-77
2023/10/11 00:31:18;;;;;;;0.30;0.30;;;;;;;11.84;100.00;96312.66;1025900;28;20644;-76
2023/10/11 00:31:51;;;;;;;5.55;0.98;;;;;;;11.84;100.00;96317.94;1010940;29;20312;-75
2023/10/11 00:32:22;;;;;;;0.75;0.75;;;;;;;11.82;100.00;96306.88;1010367;29;20269;-75
2023/10/11 00:32:53;;;;;;;1.25;1.20;;;;;;;11.81;100.00;96314.00;1010936;29;20260;-76
2023/10/11 00:33:24;;;;;;;0.22;0.22;;;;;;;11.80;100.00;96315.03;1012499;29;20434;-77
2023/10/11 00:33:54;;;;;;;0.55;0.55;;;;;;;11.76;100.00;96311.31;1022646;29;20015;-76
2023/10/11 00:34:25;;;;;;;3.13;2.40;;;;;;;11.79;100.00;96314.22;1022653;29;20283;-76
2023/10/11 00:34:55;;;;;;;3.20;2.40;;;;;;;11.78;100.00;96314.50;1022761;29;20050;-78
2023/10/11 00:35:26;;;;;;;0.75;0.75;;;;;;;11.77;100.00;96307.66;1018588;29;20024;-77
2023/10/11 00:35:56;;;;;;;0.80;0.80;;;;;;;11.71;100.00;96301.59;1022595;29;20030;-75
2023/10/11 00:36:29;;;;;;;1.35;0.82;;;;;;;11.78;100.00;96317.91;1026858;28;20175;-77
2023/10/11 00:37:00;;;;;;;0.35;0.35;;;;;;;11.77;100.00;96307.66;1022164;29;20094;-74
2023/10/11 00:37:30;;;;;;;1.15;1.05;;;;;;;11.76;100.00;96314.75;1007037;29;20352;-75
2023/10/11 00:38:01;;;;;;;5.47;3.85;;;;;;;11.73;100.00;96311.84;1026705;28;20245;-76
2023/10/11 00:38:32;;;;;;;2.17;0.80;;;;;;;11.75;100.00;96309.75;1022623;29;20027;-78
2023/10/11 00:39:05;;;;;;;1.60;1.52;;;;;;;11.77;100.00;96312.94;1026637;28;20480;-76
2023/10/11 00:39:35;;;;;;;1.50;1.40;;;;;;;11.76;100.00;96311.31;1022491;29;20027;-77
2023/10/11 00:40:08;;;;;;;0.98;0.55;;;;;;;11.77;100.00;96313.72;1014854;29;20353;-77
2023/10/11 00:40:43;;;;;;;1.35;0.65;;;;;;;11.76;100.00;96314.75;1018798;29;20535;-76
2023/10/11 00:41:17;;;;;;;0.65;0.65;;;;;;;11.79;100.00;96310.81;1019134;29;20267;-78
2023/10/11 00:41:49;;;;;;;1.40;0.73;;;;;;;11.81;100.00;96314.00;1014566;29;20024;-74
2023/10/11 00:42:19;;;;;;;3.22;1.17;;;;;;;11.79;100.00;96308.19;1010466;29;20269;-74
2023/10/11 00:42:50;;;;;;;0.30;0.30;;;;;;;11.80;100.00;96301.88;1014655;29;20012;-76
2023/10/11 00:43:31;;;;;;;2.65;1.38;;;;;;;11.75;100.00;96304.50;1015367;29;20606;-76
2023/10/11 00:44:02;;;;;;;0.20;0.20;;;;;;;11.78;100.00;96307.41;1016195;29;20028;-76
2023/10/11 00:44:33;;;;;;;3.53;0.75;;;;;;;11.77;100.00;96311.09;1020924;29;20279;-77
2023/10/11 00:45:07;;;;;;;0.60;0.55;;;;;;;11.78;100.00;96306.63;1018813;29;20386;-76
2023/10/11 00:45:37;;;;;;;1.45;0.90;;;;;;;11.76;100.00;96306.84;1019243;29;20116;-77
2023/10/11 00:46:09;;;;;;;0.82;0.82;;;;;;;11.77;100.00;96310.28;1018906;29;20020;-75
2023/10/11 00:46:50;;;;;;;6.50;2.03;;;;;;;11.76;100.00;96309.47;1022588;29;20027;-75
2023/10/11 00:47:22;;;;;;;2.63;2.35;;;;;;;11.74;100.00;96297.66;1018592;29;20298;-76
2023/10/11 00:47:53;;;;;;;1.13;0.77;;;;;;;11.78;100.00;96307.41;1018523;29;20299;-76
2023/10/11 00:48:25;;;;;;;2.88;1.58;;;;;;;11.76;100.00;96303.44;1014645;29;20351;-76
2023/10/11 00:49:00;;;;;;;2.33;0.95;;;;;;;11.71;100.00;96298.97;1014812;29;20024;-76
2023/10/11 00:49:50;;;;;;;1.30;0.95;;;;;;;11.72;100.00;96299.75;1018370;29;20842;-76
2023/10/11 00:50:21;;;;;;;0.90;0.73;;;;;;;11.78;100.00;96303.97;1018746;29;20319;-76
2023/10/11 00:50:53;;;;;;;1.55;1.40;;;;;;;11.70;100.00;96291.31;1014792;29;20072;-77
2023/10/11 00:51:29;;;;;;;0.32;0.32;;;;;;;11.72;100.00;96294.47;1018571;29;20109;-76
2023/10/11 00:52:04;;;;;;;2.22;1.70;;;;;;;11.76;100.00;96308.69;1026432;28;20265;-75
2023/10/11 00:52:34;;;;;;;2.15;1.27;;;;;;;11.72;100.00;96294.47;1021859;29;20332;-78
2023/10/11 00:53:05;;;;;;;1.23;1.05;;;;;;;11.71;100.00;96291.06;1021165;29;20763;-76
2023/10/11 00:53:35;;;;;;;1.48;1.38;;;;;;;11.76;100.00;96300.81;1022591;29;20023;-76
2023/10/11 00:54:06;;;;;;;1.13;1.02;;;;;;;11.76;100.00;96298.97;1018516;29;20084;-77
2023/10/11 00:54:43;;;;;;;13.00;1.45;;;;;;;11.76;100.00;96306.84;1018472;29;20020;-75
2023/10/11 00:55:23;;;;;;;12.95;1.40;;;;;;;11.75;100.00;96299.22;1014498;29;20024;-77
2023/10/11 00:55:55;;;;;;;3.22;1.73;;;;;;;11.73;100.00;96299.47;1026288;28;20342;-76
2023/10/11 00:56:32;;;;;;;3.75;0.85;;;;;;;11.76;100.00;96301.59;1022641;29;20023;-77
2023/10/11 00:57:03;;;;;;;0.52;0.52;;;;;;;11.74;100.00;96298.44;1016524;29;20015;-76
2023/10/11 00:57:33;;;;;;;0.68;0.68;;;;;;;11.77;100.00;96303.19;1014614;29;20500;-76
2023/10/11 00:58:04;;;;;;;1.30;0.47;;;;;;;11.76;100.00;96300.81;1016861;29;20304;-75
2023/10/11 00:58:38;;;;;;;1.98;0.57;;;;;;;11.70;100.00;96286.06;1019380;29;20418;-75
2023/10/11 00:59:10;;;;;;;0.40;0.20;;;;;;;11.76;100.00;96301.59;1018103;29;20075;-76
2023/10/11 00:59:41;;;;;;;1.42;1.15;;;;;;;11.71;100.00;96292.91;1014631;29;20731;-75
2023/10/11 01:00:15;;;;;;;1.85;1.70;;;;;;;11.77;100.00;96299.78;1015281;29;20280;-77
2023/10/11 01:00:48;;;;;;;1.70;1.60;;;;;;;11.80;100.00;96299.25;1019926;29;20330;-75
2023/10/11 01:01:22;;;;;;;3.00;1.23;;;;;;;11.79;100.00;96295.03;1019784;29;20284;-75
2023/10/11 01:01:55;;;;;;;0.98;0.57;;;;;;;11.76;100.00;96292.91;1021132;29;20274;-76
2023/10/11 01:02:27;;;;;;;1.17;1.08;;;;;;;11.74;100.00;96293.19;1021741;29;20263;-76
2023/10/11 01:02:58;;;;;;;0.32;0.30;;;;;;;11.78;100.00;96298.72;1018634;29;20011;-76
2023/10/11 01:03:33;;;;;;;2.97;2.13;;;;;;;11.71;100.00;96287.66;1010556;29;20338;-74
2023/10/11 01:04:04;;;;;;;1.42;1.35;;;;;;;11.76;100.00;96295.53;1011971;29;20268;-77
2023/10/11 01:04:38;;;;;;;2.45;1.30;;;;;;;11.72;100.00;96291.84;1015389;29;20264;-76
2023/10/11 01:05:08;;;;;;;0.20;0.20;;;;;;;11.78;100.00;96298.72;1014363;29;20437;-75
2023/10/11 01:05:43;;;;;;;0.47;0.22;;;;;;;11.76;100.00;96296.34;1005482;29;20276;-74
2023/10/11 01:06:15;;;;;;;0.35;0.35;;;;;;;11.74;100.00;96292.41;1018459;29;20032;-75
2023/10/11 01:06:49;;;;;;;0.80;0.80;;;;;;;11.77;100.00;96297.16;1015559;29;20263;-77
2023/10/11 01:07:19;;;;;;;4.18;0.82;;;;;;;11.68;100.00;96282.91;1015800;29;20712;-76
2023/10/11 01:07:50;;;;;;;1.60;1.50;;;;;;;11.75;100.00;96289.50;1017266;29;20267;-75
2023/10/11 01:08:21;;;;;;;2.70;1.45;;;;;;;11.74;100.00;96287.94;1019301;29;20805;-78
2023/10/11 01:08:52;;;;;;;0.77;0.77;;;;;;;11.77;100.00;96297.16;1022562;28;20031;-76
2023/10/11 01:09:28;;;;;;;1.10;1.00;;;;;;;11.78;100.00;96290.84;1026311;28;20050;-78
2023/10/11 01:09:58;;;;;;;0.73;0.73;;;;;;;11.78;100.00;96294.25;1023271;28;20267;-77
2023/10/11 01:10:29;;;;;;;1.08;0.43;;;;;;;11.74;100.00;96292.41;1017363;29;20300;-74
2023/10/11 01:10:59;;;;;;;0.85;0.43;;;;;;;11.75;100.00;96293.97;1014598;29;20016;-76
2023/10/11 01:11:30;;;;;;;1.80;0.90;;;;;;;11.77;100.00;96294.53;1014638;29;20027;-77
2023/10/11 01:12:01;;;;;;;0.45;0.45;;;;;;;11.76;100.00;96295.53;1018568;29;20031;-76
2023/10/11 01:12:32;;;;;;;0.05;0.05;;;;;;;11.74;100.00;96293.19;1014159;29;20032;-76
2023/10/11 01:13:03;;;;;;;1.65;1.55;;;;;;;11.74;100.00;96292.41;1014613;29;20077;-76
2023/10/11 01:13:33;;;;;;;1.23;0.70;;;;;;;11.71;100.00;96282.41;1014946;29;20266;-75
2023/10/11 01:14:05;;;;;;;1.98;0.85;;;;;;;11.74;100.00;96290.56;1018775;29;20515;-76
2023/10/11 01:14:56;;;;;;;0.45;0.40;;;;;;;11.70;100.00;96288.69;1010791;29;20029;-76
2023/10/11 01:15:26;;;;;;;1.20;1.10;;;;;;;11.74;100.00;96289.78;1006770;29;20451;-77
2023/10/11 01:15:56;;;;;;;2.00;1.42;;;;;;;11.79;100.00;96293.19;1009754;29;20085;-77
2023/10/11 01:16:28;;;;;;;4.90;1.02;;;;;;;11.81;100.00;96292.97;1019175;29;20015;-76
2023/10/11 01:16:59;;;;;;;1.10;1.00;;;;;;;11.80;100.00;96291.34;1025189;28;20018;-77
2023/10/11 01:17:32;;;;;;;1.20;1.13;;;;;;;11.78;100.00;96288.22;1018537;29;20827;-75
2023/10/11 01:18:03;;;;;;;0.50;0.45;;;;;;;11.76;100.00;96285.81;1018416;29;20374;-76
2023/10/11 01:18:33;;;;;;;0.13;0.13;;;;;;;11.75;100.00;96288.72;1018515;29;20020;-76
2023/10/11 01:19:11;;;;;;;0.38;0.38;;;;;;;11.74;100.00;96292.41;1014845;29;20032;-76
2023/10/11 01:19:41;;;;;;;0.80;0.57;;;;;;;11.71;100.00;96288.44;1010951;29;20032;-76
2023/10/11 01:20:17;;;;;;;1.95;1.85;;;;;;;11.74;100.00;96287.16;1014570;29;20283;-75
2023/10/11 01:20:47;;;;;;;0.88;0.50;;;;;;;11.70;100.00;96281.59;1017878;29;20478;-76
2023/10/11 01:21:19;;;;;;;4.05;1.75;;;;;;;11.70;100.00;96286.06;1019919;29;20264;-77
2023/10/11 01:21:52;;;;;;;0.30;0.30;;;;;;;11.73;100.00;96288.97;1022350;29;20530;-74
2023/10/11 01:22:23;;;;;;;0.82;0.60;;;;;;;11.72;100.00;96279.50;1021788;29;20273;-75
2023/10/11 01:22:53;;;;;;;3.28;1.15;;;;;;;11.75;100.00;96281.63;1015083;29;20792;-76
2023/10/11 01:23:25;;;;;;;0.73;0.68;;;;;;;11.75;100.00;96288.72;1014472;29;20020;-76
2023/10/11 01:23:57;;;;;;;1.95;0.93;;;;;;;11.74;100.00;96284.50;1014680;29;20032;-76
2023/10/11 01:24:29;;;;;;;0.65;0.65;;;;;;;11.74;100.00;96284.50;1015485;29;20276;-75
2023/10/11 01:25:01;;;;;;;1.85;1.42;;;;;;;11.74;100.00;96281.88;1015252;29;20264;-74
2023/10/11 01:25:31;;;;;;;5.25;2.20;;;;;;;11.71;100.00;96271.88;1014342;29;20449;-77
2023/10/11 01:26:08;;;;;;;1.25;1.15;;;;;;;11.77;100.00;96278.75;1010588;29;20101;-77
2023/10/11 01:26:39;;;;;;;0.38;0.38;;;;;;;11.76;100.00;96277.16;1018477;29;20122;-77
2023/10/11 01:27:13;;;;;;;1.73;0.75;;;;;;;11.72;100.00;96274.25;1020309;28;20267;-75
2023/10/11 01:27:44;;;;;;;1.00;0.80;;;;;;;11.70;100.00;96275.53;1014729;29;20681;-77
2023/10/11 01:28:15;;;;;;;1.15;1.02;;;;;;;11.74;100.00;96282.66;1018420;29;20369;-77
2023/10/11 01:28:45;;;;;;;10.15;0.73;;;;;;;11.75;100.00;96279.00;1018548;29;20791;-76
2023/10/11 01:29:16;;;;;;;2.45;0.93;;;;;;;11.74;100.00;96281.88;1015367;29;20035;-76
2023/10/11 01:29:46;;;;;;;1.23;1.13;;;;;;;11.72;100.00;96278.72;1014361;29;20020;-76
2023/10/11 01:30:17;;;;;;;1.80;1.50;;;;;;;11.71;100.00;96277.94;1010635;29;20040;-77
2023/10/11 01:30:47;;;;;;;3.10;1.40;;;;;;;11.73;100.00;96272.41;1002937;29;20025;-76
2023/10/11 01:31:18;;;;;;;6.07;3.00;;;;;;;11.68;100.00;96269.75;1010865;29;20029;-76
2023/10/11 01:31:48;;;;;;;1.33;1.23;;;;;;;11.66;100.00;96264.75;1018359;29;20819;-75
2023/10/11 01:32:19;;;;;;;1.05;1.05;;;;;;;11.64;100.00;96266.84;1014205;29;20053;-75
2023/10/11 01:32:54;;;;;;;0.73;0.73;;;;;;;11.64;100.00;96272.13;1014523;29;20020;-76
2023/10/11 01:33:25;;;;;;;2.90;1.73;;;;;;;11.68;100.00;96275.03;1014332;29;20079;-75
2023/10/11 01:33:55;;;;;;;0.47;0.28;;;;;;;11.69;100.00;96282.63;1014673;29;20332;-77
2023/10/11 01:34:30;;;;;;;3.05;0.55;;;;;;;11.61;100.00;96266.56;1010535;29;20485;-75
2023/10/11 01:35:01;;;;;;;5.28;1.60;;;;;;;11.67;100.00;96279.50;1012003;29;20039;-78
2023/10/11 01:35:36;;;;;;;0.65;0.50;;;;;;;11.68;100.00;96278.44;1011290;29;20280;-75
2023/10/11 01:36:10;;;;;;;2.25;1.40;;;;;;;11.70;100.00;96283.41;1011790;29;20024;-76
2023/10/11 01:36:42;;;;;;;1.02;0.95;;;;;;;11.70;100.00;96275.53;1008589;29;20341;-74
2023/10/11 01:37:12;;;;;;;1.25;1.10;;;;;;;11.70;100.00;96276.34;1017600;29;20336;-77
2023/10/11 01:37:43;;;;;;;0.95;0.95;;;;;;;11.73;100.00;96269.75;1018495;29;20380;-77
2023/10/11 01:38:17;;;;;;;2.03;1.48;;;;;;;11.75;100.00;96273.72;1026628;28;20019;-75
2023/10/11 01:38:47;;;;;;;0.15;0.15;;;;;;;11.64;100.00;96264.22;1022943;28;20506;-76
2023/10/11 01:39:21;;;;;;;2.15;1.02;;;;;;;11.71;100.00;96277.13;1015093;29;20306;-75
2023/10/11 01:39:51;;;;;;;0.52;0.52;;;;;;;11.73;100.00;96277.66;1017575;29;20115;-76
2023/10/11 01:40:24;;;;;;;1.63;1.20;;;;;;;11.73;100.00;96282.91;1018907;29;20648;-76
2023/10/11 01:40:55;;;;;;;1.02;0.95;;;;;;;11.70;100.00;96278.16;1019846;28;20584;-75
2023/10/11 01:41:26;;;;;;;2.50;1.15;;;;;;;11.72;100.00;96273.44;1026294;28;20254;-76
2023/10/11 01:41:58;;;;;;;1.75;1.65;;;;;;;11.73;100.00;96280.28;1021769;29;20118;-76
2023/10/11 01:42:28;;;;;;;0.17;0.17;;;;;;;11.72;100.00;96276.88;1014344;29;20621;-74
2023/10/11 01:43:02;;;;;;;2.28;0.90;;;;;;;11.71;100.00;96275.28;1018525;29;20626;-75
2023/10/11 01:43:34;;;;;;;0.20;0.20;;;;;;;11.70;100.00;96275.53;1019016;29;20102;-75
2023/10/11 01:44:07;;;;;;;0.60;0.60;;;;;;;11.68;100.00;96278.44;1027082;28;20263;-77
2023/10/11 01:44:38;;;;;;;1.70;0.55;;;;;;;11.71;100.00;96282.41;1026373;28;20302;-77
2023/10/11 01:45:09;;;;;;;0.70;0.57;;;;;;;11.68;100.00;96277.66;1026616;28;20270;-74
2023/10/11 01:45:40;;;;;;;1.55;0.80;;;;;;;11.66;100.00;96279.72;1021755;29;20271;-76
2023/10/11 01:46:10;;;;;;;0.45;0.45;;;;;;;11.65;100.00;96278.16;1018285;29;20038;-76
2023/10/11 01:46:41;;;;;;;0.55;0.55;;;;;;;11.61;100.00;96274.47;1010557;29;20032;-76
2023/10/11 01:47:12;;;;;;;0.55;0.38;;;;;;;11.61;100.00;96277.88;1014552;29;20080;-76
2023/10/11 01:47:42;;;;;;;0.47;0.47;;;;;;;11.63;100.00;96269.72;1006946;29;20510;-76
2023/10/11 01:48:15;;;;;;;1.55;0.98;;;;;;;11.64;100.00;96277.38;1007010;29;20471;-77
2023/10/11 01:48:45;;;;;;;1.13;1.08;;;;;;;11.65;100.00;96280.78;1014942;29;20091;-76
2023/10/11 01:49:16;;;;;;;1.20;1.10;;;;;;;11.63;100.00;96274.97;1011013;29;20854;-76
2023/10/11 01:49:47;;;;;;;0.88;0.75;;;;;;;11.63;100.00;96275.75;1014518;29;20032;-76
2023/10/11 01:50:17;;;;;;;0.40;0.17;;;;;;;11.61;100.00;96275.25;1014628;29;20036;-76
2023/10/11 01:50:48;;;;;;;2.80;1.65;;;;;;;11.59;100.00;96264.19;1022670;28;20102;-76
2023/10/11 01:51:26;;;;;;;0.55;0.55;;;;;;;11.69;100.00;96279.22;1022120;29;20031;-76
2023/10/11 01:51:56;;;;;;;2.22;1.50;;;;;;;11.65;100.00;96273.69;1018353;29;20396;-77
2023/10/11 01:52:27;;;;;;;0.50;0.50;;;;;;;11.65;100.00;96272.91;1013931;29;20526;-78
2023/10/11 01:52:57;;;;;;;5.43;1.80;;;;;;;11.64;100.00;96276.59;1015605;29;20028;-76
2023/10/11 01:53:27;;;;;;;0.20;0.20;;;;;;;11.60;100.00;96259.72;1018454;29;20019;-76
2023/10/11 01:54:06;;;;;;;0.40;0.40;;;;;;;11.62;100.00;96276.03;1026379;28;20632;-76
2023/10/11 01:54:37;;;;;;;0.32;0.32;;;;;;;11.60;100.00;96270.22;1026432;28;20121;-77
2023/10/11 01:55:10;;;;;;;1.00;1.00;;;;;;;11.60;100.00;96270.22;1020314;29;20256;-79
2023/10/11 01:55:40;;;;;;;2.70;1.30;;;;;;;11.52;100.00;96264.41;1020181;29;20568;-76
2023/10/11 01:56:13;;;;;;;1.05;0.22;;;;;;;11.53;100.00;96266.00;1023850;28;20055;-76
2023/10/11 01:56:45;;;;;;;0.10;0.10;;;;;;;11.56;100.00;96268.09;1023136;29;20034;-76
2023/10/11 01:57:16;;;;;;;2.65;0.82;;;;;;;11.60;100.00;96267.59;1011560;29;20281;-75
2023/10/11 01:57:49;;;;;;;0.70;0.30;;;;;;;11.61;100.00;96266.56;1003769;29;20282;-76
2023/10/11 01:58:19;;;;;;;2.13;0.60;;;;;;;11.59;100.00;96268.66;1011282;29;20311;-77
2023/10/11 01:58:50;;;;;;;1.02;0.40;;;;;;;11.53;100.00;96260.72;1019834;29;20262;-76
2023/10/11 01:59:21;;;;;;;2.33;1.10;;;;;;;11.57;100.00;96269.72;1023165;29;20034;-76
2023/10/11 01:59:52;;;;;;;1.98;0.90;;;;;;;11.60;100.00;96264.97;1023193;29;20274;-78
2023/10/11 02:00:29;;;;;;;0.57;0.47;;;;;;;11.61;100.00;96267.38;1019247;29;20023;-76
2023/10/11 02:01:02;;;;;;;1.15;1.05;;;;;;;11.62;100.00;96268.16;1023163;29;20027;-77
2023/10/11 02:01:38;;;;;;;1.85;0.90;;;;;;;11.56;100.00;96259.44;1028527;28;20830;-76
2023/10/11 02:02:10;;;;;;;0.10;0.10;;;;;;;11.56;100.00;96259.44;1021036;29;20266;-76
2023/10/11 02:02:47;;;;;;;2.03;1.17;;;;;;;11.60;100.00;96264.97;1018920;29;20855;-76
2023/10/11 02:03:17;;;;;;;0.38;0.38;;;;;;;11.57;100.00;96267.09;1017409;29;20327;-78
2023/10/11 02:03:54;;;;;;;4.70;1.17;;;;;;;11.51;100.00;96260.22;1018894;29;20375;-75
2023/10/11 02:04:25;;;;;;;0.52;0.52;;;;;;;11.58;100.00;96267.88;1020846;29;20019;-75
2023/10/11 02:04:59;;;;;;;0.35;0.35;;;;;;;11.55;100.00;96266.53;1023038;29;20274;-76
2023/10/11 02:05:31;;;;;;;0.88;0.85;;;;;;;11.55;100.00;96266.53;1015116;29;20256;-77
2023/10/11 02:06:04;;;;;;;0.88;0.57;;;;;;;11.54;100.00;96262.34;1012853;29;20352;-75
2023/10/11 02:06:35;;;;;;;1.13;0.90;;;;;;;11.52;100.00;96261.00;1015348;29;20268;-76
2023/10/11 02:07:05;;;;;;;1.25;0.93;;;;;;;11.43;100.00;96252.00;1016459;29;20557;-76
2023/10/11 02:07:36;;;;;;;0.85;0.30;;;;;;;11.49;100.00;96261.50;1023823;28;20034;-76
2023/10/11 02:08:06;;;;;;;0.57;0.50;;;;;;;11.53;100.00;96260.72;1019072;29;20513;-76
2023/10/11 02:08:41;;;;;;;0.45;0.45;;;;;;;11.52;100.00;96258.38;1015345;29;20088;-76
2023/10/11 02:09:12;;;;;;;2.17;1.00;;;;;;;11.46;100.00;96251.50;1013529;29;20351;-77
2023/10/11 02:09:43;;;;;;;0.68;0.68;;;;;;;11.48;100.00;96263.34;1023125;29;20027;-77
2023/10/11 02:10:13;;;;;;;0.38;0.38;;;;;;;11.42;100.00;96251.22;1023299;29;20030;-77
2023/10/11 02:10:44;;;;;;;1.30;1.20;;;;;;;11.46;100.00;96265.44;1023143;29;20270;-76
2023/10/11 02:11:15;;;;;;;0.88;0.60;;;;;;;11.47;100.00;96263.63;1023059;29;20429;-76
2023/10/11 02:11:45;;;;;;;1.05;1.05;;;;;;;11.48;100.00;96263.34;1019289;29;20024;-76
2023/10/11 02:12:17;;;;;;;5.15;0.93;;;;;;;11.44;100.00;96257.03;1022467;29;20027;-76
2023/10/11 02:12:48;;;;;;;0.52;0.52;;;;;;;11.43;100.00;96255.44;1014884;29;20541;-75
2023/10/11 02:13:20;;;;;;;0.80;0.80;;;;;;;11.43;100.00;96260.69;1015140;29;20280;-75
2023/10/11 02:13:52;;;;;;;2.25;1.65;;;;;;;11.38;100.00;96252.78;1015464;29;20016;-76
2023/10/11 02:14:23;;;;;;;0.52;0.52;;;;;;;11.44;100.00;96258.88;1019248;29;20259;-75
2023/10/11 02:14:53;;;;;;;1.65;0.85;;;;;;;11.44;100.00;96264.91;1023284;29;20289;-76
2023/10/11 02:15:30;;;;;;;0.25;0.25;;;;;;;11.44;100.00;96266.75;1022373;29;20050;-75
2023/10/11 02:16:00;;;;;;;6.38;0.85;;;;;;;11.45;100.00;96269.13;1020241;29;20568;-76
2023/10/11 02:16:31;;;;;;;0.93;0.93;;;;;;;11.43;100.00;96265.94;1020212;29;20327;-77
2023/10/11 02:17:04;;;;;;;0.20;0.20;;;;;;;11.44;100.00;96266.75;1023189;29;20420;-77
2023/10/11 02:17:39;;;;;;;0.20;0.20;;;;;;;11.42;100.00;96259.09;1016022;29;20025;-76
2023/10/11 02:18:10;;;;;;;4.70;2.22;;;;;;;11.43;100.00;96255.44;1012789;29;20805;-77
2023/10/11 02:18:41;;;;;;;0.40;0.40;;;;;;;11.46;100.00;96260.16;1015274;29;20272;-76
2023/10/11 02:19:15;;;;;;;0.85;0.82;;;;;;;11.42;100.00;96251.22;1017097;29;20028;-76
2023/10/11 02:19:45;;;;;;;1.67;1.20;;;;;;;11.45;100.00;96258.59;1023127;29;20023;-76
2023/10/11 02:20:20;;;;;;;0.57;0.47;;;;;;;11.47;100.00;96263.63;1022921;29;20951;-75
2023/10/11 02:20:55;;;;;;;0.10;0.10;;;;;;;11.47;100.00;96261.00;1015223;29;20020;-75
2023/10/11 02:21:27;;;;;;;1.17;1.10;;;;;;;11.46;100.00;96265.44;1018991;29;20327;-77
2023/10/11 02:21:59;;;;;;;1.45;1.05;;;;;;;11.47;100.00;96267.03;1015363;29;20749;-74
2023/10/11 02:22:32;;;;;;;5.05;1.48;;;;;;;11.41;100.00;96260.16;1018906;29;20863;-77
2023/10/11 02:23:03;;;;;;;0.30;0.28;;;;;;;11.41;100.00;96257.53;1021113;29;20694;-75
2023/10/11 02:23:37;;;;;;;0.40;0.40;;;;;;;11.40;100.00;96263.03;1022635;29;20267;-77
2023/10/11 02:24:09;;;;;;;4.50;1.27;;;;;;;11.41;100.00;96259.38;1027437;28;20285;-76
2023/10/11 02:24:39;;;;;;;1.08;0.93;;;;;;;11.39;100.00;96262.25;1027577;28;20023;-76
2023/10/11 02:25:15;;;;;;;0.30;0.30;;;;;;;11.41;100.00;96265.41;1023656;29;20282;-77
2023/10/11 02:25:46;;;;;;;0.98;0.85;;;;;;;11.35;100.00;96258.53;1019878;29;20441;-75
2023/10/11 02:26:16;;;;;;;0.75;0.75;;;;;;;11.36;100.00;96261.97;1019558;29;20283;-76
2023/10/11 02:26:49;;;;;;;12.23;2.30;;;;;;;11.40;100.00;96266.47;1019693;29;20063;-76
2023/10/11 02:27:22;;;;;;;0.70;0.70;;;;;;;11.40;100.00;96266.47;1019836;29;20074;-77
2023/10/11 02:27:53;;;;;;;2.92;1.20;;;;;;;11.37;100.00;96264.34;1013281;29;20297;-76
2023/10/11 02:28:24;;;;;;;1.00;0.82;;;;;;;11.30;100.00;96251.44;1016452;29;20903;-76
2023/10/11 02:28:54;;;;;;;0.80;0.80;;;;;;;11.40;100.00;96266.47;1019811;29;20272;-77
2023/10/11 02:29:25;;;;;;;1.67;0.77;;;;;;;11.38;100.00;96263.28;1019820;29;20035;-76
2023/10/11 02:29:55;;;;;;;1.73;1.55;;;;;;;11.38;100.00;96268.53;1015882;29;20032;-77
2023/10/11 02:30:26;;;;;;;2.08;1.90;;;;;;;11.35;100.00;96258.53;1019592;29;20040;-76
2023/10/11 02:30:56;;;;;;;1.95;1.55;;;;;;;11.39;100.00;96262.25;1023590;29;20027;-76
2023/10/11 02:31:31;;;;;;;1.45;0.50;;;;;;;11.38;100.00;96263.28;1023969;28;20100;-76